sensor_id;sensor_type;location;lat;lon;timestamp;P1;durP1;ratioP1;P2;durP2;ratioP2
34571;SDS011;20808;48.974;8.452;2023-01-15T00:00:15;1.00;;;0.80;;
34571;SDS011;20808;48.974;8.452;2023-01-15T00:00:31;1.05;;;0.80;;
34571;SDS011;20808;48.974;8.452;2023-01-15T00:00:47;1.00;;;0.80;;
34571;SDS011;20808;48.974;8.452;2023-01-15T00:01:03;1.10;;;0.80;;
34571;SDS011;20808;48.974;8.452;2023-01-15T00:01:21;1.10;;;0.80;;
34571;SDS011;20808;48.974;8.452;2023-01-15T00:01:39;1.00;;;0.80;;
34571;SDS011;20808;48.974;8.452;2023-01-15T00:01:55;0.90;;;0.70;;
34571;SDS011;20808;48.974;8.452;2023-01-15T00:02:12;0.90;;;0.70;;
34571;SDS011;20808;48.974;8.452;2023-01-15T00:02:30;0.90;;;0.70;;
34571;SDS011;20808;48.974;8.452;2023-01-15T00:02:46;1.00;;;0.80;;
34571;SDS011;20808;48.974;8.452;2023-01-15T00:03:03;1.20;;;0.70;;
34571;SDS011;20808;48.974;8.452;2023-01-15T00:03:19;1.10;;;0.70;;
34571;SDS011;20808;48.974;8.452;2023-01-15T00:03:34;1.48;;;0.80;;
34571;SDS011;20808;48.974;8.452;2023-01-15T00:03:50;1.30;;;0.70;;
34571;SDS011;20808;48.974;8.452;2023-01-15T00:04:07;1.10;;;0.70;;
34571;SDS011;20808;48.974;8.452;2023-01-15T00:04:23;1.10;;;0.73;;
34571;SDS011;20808;48.974;8.452;2023-01-15T00:04:39;0.80;;;0.70;;
34571;SDS011;20808;48.974;8.452;2023-01-15T00:04:55;0.80;;;0.70;;
34571;SDS011;20808;48.974;8.452;2023-01-15T00:05:11;0.90;;;0.60;;
34571;SDS011;20808;48.974;8.452;2023-01-15T00:05:27;0.90;;;0.60;;
34571;SDS011;20808;48.974;8.452;2023-01-15T00:05:43;1.00;;;0.70;;
34571;SDS011;20808;48.974;8.452;2023-01-15T00:06:01;1.00;;;0.70;;
34571;SDS011;20808;48.974;8.452;2023-01-15T00:06:18;1.00;;;0.70;;
34571;SDS011;20808;48.974;8.452;2023-01-15T00:06:35;1.20;;;0.70;;
34571;SDS011;20808;48.974;8.452;2023-01-15T00:06:52;1.20;;;0.70;;
34571;SDS011;20808;48.974;8.452;2023-01-15T00:07:08;1.75;;;0.80;;
34571;SDS011;20808;48.974;8.452;2023-01-15T00:07:24;1.60;;;0.80;;
34571;SDS011;20808;48.974;8.452;2023-01-15T00:07:41;1.50;;;0.70;;
34571;SDS011;20808;48.974;8.452;2023-01-15T00:07:58;0.90;;;0.70;;
34571;SDS011;20808;48.974;8.452;2023-01-15T00:08:13;0.80;;;0.70;;
34571;SDS011;20808;48.974;8.452;2023-01-15T00:08:29;1.50;;;0.70;;
34571;SDS011;20808;48.974;8.452;2023-01-15T00:08:45;1.80;;;0.80;;
34571;SDS011;20808;48.974;8.452;2023-01-15T00:09:01;2.20;;;0.80;;
34571;SDS011;20808;48.974;8.452;2023-01-15T00:09:18;2.40;;;0.80;;
34571;SDS011;20808;48.974;8.452;2023-01-15T00:09:34;2.35;;;0.82;;
34571;SDS011;20808;48.974;8.452;2023-01-15T00:09:49;2.13;;;0.80;;
34571;SDS011;20808;48.974;8.452;2023-01-15T00:10:06;1.80;;;0.70;;
34571;SDS011;20808;48.974;8.452;2023-01-15T00:10:23;1.20;;;0.70;;
34571;SDS011;20808;48.974;8.452;2023-01-15T00:10:40;1.20;;;0.77;;
34571;SDS011;20808;48.974;8.452;2023-01-15T00:10:55;1.20;;;0.80;;
34571;SDS011;20808;48.974;8.452;2023-01-15T00:11:11;0.95;;;0.80;;
34571;SDS011;20808;48.974;8.452;2023-01-15T00:11:27;0.90;;;0.70;;
34571;SDS011;20808;48.974;8.452;2023-01-15T00:11:43;0.90;;;0.70;;
34571;SDS011;20808;48.974;8.452;2023-01-15T00:12:00;1.00;;;0.73;;
34571;SDS011;20808;48.974;8.452;2023-01-15T00:12:17;1.00;;;0.80;;
34571;SDS011;20808;48.974;8.452;2023-01-15T00:12:33;1.00;;;0.80;;
34571;SDS011;20808;48.974;8.452;2023-01-15T00:12:49;0.90;;;0.80;;
34571;SDS011;20808;48.974;8.452;2023-01-15T00:13:05;1.00;;;0.80;;
34571;SDS011;20808;48.974;8.452;2023-01-15T00:13:21;1.00;;;0.80;;
34571;SDS011;20808;48.974;8.452;2023-01-15T00:13:38;1.00;;;0.70;;
34571;SDS011;20808;48.974;8.452;2023-01-15T00:13:54;1.00;;;0.80;;
34571;SDS011;20808;48.974;8.452;2023-01-15T00:14:10;0.82;;;0.70;;
34571;SDS011;20808;48.974;8.452;2023-01-15T00:14:26;0.88;;;0.75;;
34571;SDS011;20808;48.974;8.452;2023-01-15T00:14:43;0.90;;;0.80;;
34571;SDS011;20808;48.974;8.452;2023-01-15T00:14:59;0.90;;;0.80;;
34571;SDS011;20808;48.974;8.452;2023-01-15T00:15:15;0.90;;;0.77;;
34571;SDS011;20808;48.974;8.452;2023-01-15T00:15:31;0.90;;;0.70;;
34571;SDS011;20808;48.974;8.452;2023-01-15T00:15:47;0.90;;;0.70;;
34571;SDS011;20808;48.974;8.452;2023-01-15T00:16:03;0.90;;;0.70;;
34571;SDS011;20808;48.974;8.452;2023-01-15T00:16:22;0.80;;;0.70;;
34571;SDS011;20808;48.974;8.452;2023-01-15T00:16:38;0.90;;;0.70;;
34571;SDS011;20808;48.974;8.452;2023-01-15T00:16:54;1.00;;;0.80;;
34571;SDS011;20808;48.974;8.452;2023-01-15T00:17:10;1.10;;;0.80;;
34571;SDS011;20808;48.974;8.452;2023-01-15T00:17:26;1.00;;;0.80;;
34571;SDS011;20808;48.974;8.452;2023-01-15T00:17:43;0.95;;;0.75;;
34571;SDS011;20808;48.974;8.452;2023-01-15T00:17:58;0.80;;;0.70;;
34571;SDS011;20808;48.974;8.452;2023-01-15T00:18:14;0.90;;;0.70;;
34571;SDS011;20808;48.974;8.452;2023-01-15T00:18:30;0.90;;;0.70;;
34571;SDS011;20808;48.974;8.452;2023-01-15T00:18:48;0.95;;;0.80;;
34571;SDS011;20808;48.974;8.452;2023-01-15T00:19:05;1.30;;;0.80;;
34571;SDS011;20808;48.974;8.452;2023-01-15T00:19:24;1.20;;;0.80;;
34571;SDS011;20808;48.974;8.452;2023-01-15T00:19:40;1.20;;;0.80;;
34571;SDS011;20808;48.974;8.452;2023-01-15T00:19:56;0.90;;;0.80;;
34571;SDS011;20808;48.974;8.452;2023-01-15T00:20:11;0.90;;;0.80;;
34571;SDS011;20808;48.974;8.452;2023-01-15T00:20:27;1.00;;;0.80;;
34571;SDS011;20808;48.974;8.452;2023-01-15T00:20:43;1.80;;;0.80;;
34571;SDS011;20808;48.974;8.452;2023-01-15T00:20:59;2.00;;;0.80;;
34571;SDS011;20808;48.974;8.452;2023-01-15T00:21:16;1.90;;;0.80;;
34571;SDS011;20808;48.974;8.452;2023-01-15T00:21:32;2.00;;;0.80;;
34571;SDS011;20808;48.974;8.452;2023-01-15T00:21:48;1.10;;;0.80;;
34571;SDS011;20808;48.974;8.452;2023-01-15T00:22:04;1.00;;;0.70;;
34571;SDS011;20808;48.974;8.452;2023-01-15T00:22:19;0.95;;;0.70;;
34571;SDS011;20808;48.974;8.452;2023-01-15T00:22:35;0.80;;;0.70;;
34571;SDS011;20808;48.974;8.452;2023-01-15T00:22:52;1.00;;;0.70;;
34571;SDS011;20808;48.974;8.452;2023-01-15T00:23:08;1.00;;;0.75;;
34571;SDS011;20808;48.974;8.452;2023-01-15T00:23:44;1.10;;;0.80;;
34571;SDS011;20808;48.974;8.452;2023-01-15T00:24:19;1.30;;;0.80;;
34571;SDS011;20808;48.974;8.452;2023-01-15T00:24:53;1.08;;;0.77;;
34571;SDS011;20808;48.974;8.452;2023-01-15T00:25:28;1.00;;;0.70;;
34571;SDS011;20808;48.974;8.452;2023-01-15T00:26:02;1.00;;;0.70;;
34571;SDS011;20808;48.974;8.452;2023-01-15T00:26:37;1.60;;;0.90;;
34571;SDS011;20808;48.974;8.452;2023-01-15T00:27:12;1.45;;;0.80;;
34571;SDS011;20808;48.974;8.452;2023-01-15T00:27:48;1.08;;;0.80;;
34571;SDS011;20808;48.974;8.452;2023-01-15T00:28:05;1.33;;;0.80;;
34571;SDS011;20808;48.974;8.452;2023-01-15T00:28:21;1.98;;;0.80;;
34571;SDS011;20808;48.974;8.452;2023-01-15T00:28:37;2.50;;;0.80;;
34571;SDS011;20808;48.974;8.452;2023-01-15T00:28:53;2.30;;;0.73;;
34571;SDS011;20808;48.974;8.452;2023-01-15T00:29:08;2.03;;;0.80;;
34571;SDS011;20808;48.974;8.452;2023-01-15T00:29:25;0.93;;;0.70;;
34571;SDS011;20808;48.974;8.452;2023-01-15T00:29:42;0.90;;;0.80;;
34571;SDS011;20808;48.974;8.452;2023-01-15T00:29:58;0.90;;;0.70;;
34571;SDS011;20808;48.974;8.452;2023-01-15T00:30:14;0.90;;;0.70;;
34571;SDS011;20808;48.974;8.452;2023-01-15T00:30:31;1.10;;;0.80;;
34571;SDS011;20808;48.974;8.452;2023-01-15T00:30:48;1.00;;;0.80;;
34571;SDS011;20808;48.974;8.452;2023-01-15T00:31:04;1.00;;;0.70;;
34571;SDS011;20808;48.974;8.452;2023-01-15T00:31:20;2.30;;;0.70;;
34571;SDS011;20808;48.974;8.452;2023-01-15T00:31:35;2.20;;;0.70;;
34571;SDS011;20808;48.974;8.452;2023-01-15T00:31:52;2.20;;;0.70;;
34571;SDS011;20808;48.974;8.452;2023-01-15T00:32:11;2.08;;;0.80;;
34571;SDS011;20808;48.974;8.452;2023-01-15T00:32:27;1.37;;;0.80;;
34571;SDS011;20808;48.974;8.452;2023-01-15T00:32:43;1.40;;;0.80;;
34571;SDS011;20808;48.974;8.452;2023-01-15T00:32:59;1.50;;;0.80;;
34571;SDS011;20808;48.974;8.452;2023-01-15T00:33:16;1.20;;;0.80;;
34571;SDS011;20808;48.974;8.452;2023-01-15T00:33:32;1.10;;;0.80;;
34571;SDS011;20808;48.974;8.452;2023-01-15T00:33:47;1.23;;;0.80;;
34571;SDS011;20808;48.974;8.452;2023-01-15T00:34:03;1.40;;;0.80;;
34571;SDS011;20808;48.974;8.452;2023-01-15T00:34:19;1.70;;;0.90;;
34571;SDS011;20808;48.974;8.452;2023-01-15T00:34:35;1.50;;;0.90;;
34571;SDS011;20808;48.974;8.452;2023-01-15T00:34:52;1.40;;;0.90;;
34571;SDS011;20808;48.974;8.452;2023-01-15T00:35:09;1.38;;;0.90;;
34571;SDS011;20808;48.974;8.452;2023-01-15T00:35:27;1.30;;;0.90;;
34571;SDS011;20808;48.974;8.452;2023-01-15T00:35:42;1.20;;;0.80;;
34571;SDS011;20808;48.974;8.452;2023-01-15T00:35:58;1.20;;;0.70;;
34571;SDS011;20808;48.974;8.452;2023-01-15T00:36:15;0.90;;;0.70;;
34571;SDS011;20808;48.974;8.452;2023-01-15T00:36:31;0.90;;;0.70;;
34571;SDS011;20808;48.974;8.452;2023-01-15T00:36:48;1.70;;;0.80;;
34571;SDS011;20808;48.974;8.452;2023-01-15T00:37:04;2.40;;;0.80;;
34571;SDS011;20808;48.974;8.452;2023-01-15T00:37:20;2.40;;;0.80;;
34571;SDS011;20808;48.974;8.452;2023-01-15T00:37:37;2.40;;;0.85;;
34571;SDS011;20808;48.974;8.452;2023-01-15T00:37:52;1.25;;;0.80;;
34571;SDS011;20808;48.974;8.452;2023-01-15T00:38:08;1.20;;;0.80;;
34571;SDS011;20808;48.974;8.452;2023-01-15T00:38:24;1.20;;;0.70;;
34571;SDS011;20808;48.974;8.452;2023-01-15T00:38:40;1.20;;;0.70;;
34571;SDS011;20808;48.974;8.452;2023-01-15T00:38:55;1.40;;;0.80;;
34571;SDS011;20808;48.974;8.452;2023-01-15T00:39:12;1.20;;;0.73;;
34571;SDS011;20808;48.974;8.452;2023-01-15T00:39:28;1.20;;;0.80;;
34571;SDS011;20808;48.974;8.452;2023-01-15T00:39:44;1.20;;;0.80;;
34571;SDS011;20808;48.974;8.452;2023-01-15T00:39:59;1.30;;;0.90;;
34571;SDS011;20808;48.974;8.452;2023-01-15T00:40:16;1.42;;;0.90;;
34571;SDS011;20808;48.974;8.452;2023-01-15T00:40:34;1.60;;;0.90;;
34571;SDS011;20808;48.974;8.452;2023-01-15T00:40:50;1.57;;;0.80;;
34571;SDS011;20808;48.974;8.452;2023-01-15T00:41:07;1.50;;;0.80;;
34571;SDS011;20808;48.974;8.452;2023-01-15T00:41:22;1.73;;;0.80;;
34571;SDS011;20808;48.974;8.452;2023-01-15T00:41:38;1.77;;;0.80;;
34571;SDS011;20808;48.974;8.452;2023-01-15T00:41:54;1.60;;;0.80;;
34571;SDS011;20808;48.974;8.452;2023-01-15T00:42:11;1.60;;;0.80;;
34571;SDS011;20808;48.974;8.452;2023-01-15T00:42:27;1.00;;;0.75;;
34571;SDS011;20808;48.974;8.452;2023-01-15T00:42:43;0.90;;;0.70;;
34571;SDS011;20808;48.974;8.452;2023-01-15T00:43:00;0.90;;;0.70;;
34571;SDS011;20808;48.974;8.452;2023-01-15T00:43:16;1.00;;;0.70;;
34571;SDS011;20808;48.974;8.452;2023-01-15T00:43:32;1.00;;;0.80;;
34571;SDS011;20808;48.974;8.452;2023-01-15T00:43:48;1.00;;;0.80;;
34571;SDS011;20808;48.974;8.452;2023-01-15T00:44:05;0.90;;;0.75;;
34571;SDS011;20808;48.974;8.452;2023-01-15T00:44:20;0.90;;;0.70;;
34571;SDS011;20808;48.974;8.452;2023-01-15T00:44:37;0.80;;;0.70;;
34571;SDS011;20808;48.974;8.452;2023-01-15T00:44:53;0.98;;;0.70;;
34571;SDS011;20808;48.974;8.452;2023-01-15T00:45:10;1.20;;;0.80;;
34571;SDS011;20808;48.974;8.452;2023-01-15T00:45:26;1.20;;;0.80;;
34571;SDS011;20808;48.974;8.452;2023-01-15T00:45:42;1.10;;;0.80;;
34571;SDS011;20808;48.974;8.452;2023-01-15T00:45:58;0.98;;;0.70;;
34571;SDS011;20808;48.974;8.452;2023-01-15T00:46:14;0.90;;;0.70;;
34571;SDS011;20808;48.974;8.452;2023-01-15T00:46:31;1.10;;;0.80;;
34571;SDS011;20808;48.974;8.452;2023-01-15T00:46:47;1.05;;;0.80;;
34571;SDS011;20808;48.974;8.452;2023-01-15T00:47:03;1.13;;;0.80;;
34571;SDS011;20808;48.974;8.452;2023-01-15T00:47:20;1.40;;;0.70;;
34571;SDS011;20808;48.974;8.452;2023-01-15T00:47:37;1.40;;;0.70;;
34571;SDS011;20808;48.974;8.452;2023-01-15T00:47:54;1.40;;;0.70;;
34571;SDS011;20808;48.974;8.452;2023-01-15T00:48:10;1.30;;;0.70;;
34571;SDS011;20808;48.974;8.452;2023-01-15T00:48:25;1.30;;;0.70;;
34571;SDS011;20808;48.974;8.452;2023-01-15T00:48:44;1.30;;;0.70;;
34571;SDS011;20808;48.974;8.452;2023-01-15T00:49:01;1.10;;;0.70;;
34571;SDS011;20808;48.974;8.452;2023-01-15T00:49:17;1.20;;;0.80;;
34571;SDS011;20808;48.974;8.452;2023-01-15T00:49:33;1.15;;;0.70;;
34571;SDS011;20808;48.974;8.452;2023-01-15T00:49:49;1.10;;;0.70;;
34571;SDS011;20808;48.974;8.452;2023-01-15T00:50:06;1.10;;;0.70;;
34571;SDS011;20808;48.974;8.452;2023-01-15T00:50:24;1.00;;;0.70;;
34571;SDS011;20808;48.974;8.452;2023-01-15T00:50:40;0.90;;;0.70;;
34571;SDS011;20808;48.974;8.452;2023-01-15T00:50:56;0.90;;;0.70;;
34571;SDS011;20808;48.974;8.452;2023-01-15T00:51:12;1.00;;;0.80;;
34571;SDS011;20808;48.974;8.452;2023-01-15T00:51:28;1.10;;;0.80;;
34571;SDS011;20808;48.974;8.452;2023-01-15T00:51:44;1.20;;;0.70;;
34571;SDS011;20808;48.974;8.452;2023-01-15T00:52:02;1.10;;;0.70;;
34571;SDS011;20808;48.974;8.452;2023-01-15T00:52:18;1.10;;;0.70;;
34571;SDS011;20808;48.974;8.452;2023-01-15T00:52:34;0.90;;;0.63;;
34571;SDS011;20808;48.974;8.452;2023-01-15T00:52:50;0.90;;;0.70;;
34571;SDS011;20808;48.974;8.452;2023-01-15T00:53:06;1.02;;;0.70;;
34571;SDS011;20808;48.974;8.452;2023-01-15T00:53:22;1.08;;;0.70;;
34571;SDS011;20808;48.974;8.452;2023-01-15T00:53:38;1.17;;;0.80;;
34571;SDS011;20808;48.974;8.452;2023-01-15T00:53:54;1.20;;;0.80;;
34571;SDS011;20808;48.974;8.452;2023-01-15T00:54:10;1.10;;;0.80;;
34571;SDS011;20808;48.974;8.452;2023-01-15T00:54:26;1.00;;;0.80;;
34571;SDS011;20808;48.974;8.452;2023-01-15T00:54:42;0.93;;;0.70;;
34571;SDS011;20808;48.974;8.452;2023-01-15T00:54:58;1.10;;;0.73;;
34571;SDS011;20808;48.974;8.452;2023-01-15T00:55:15;1.08;;;0.80;;
34571;SDS011;20808;48.974;8.452;2023-01-15T00:55:31;1.10;;;0.80;;
34571;SDS011;20808;48.974;8.452;2023-01-15T00:55:46;1.30;;;0.80;;
34571;SDS011;20808;48.974;8.452;2023-01-15T00:56:02;1.30;;;0.80;;
34571;SDS011;20808;48.974;8.452;2023-01-15T00:56:18;1.20;;;0.80;;
34571;SDS011;20808;48.974;8.452;2023-01-15T00:56:34;1.40;;;0.90;;
34571;SDS011;20808;48.974;8.452;2023-01-15T00:56:51;1.20;;;0.90;;
34571;SDS011;20808;48.974;8.452;2023-01-15T00:57:07;1.10;;;0.80;;
34571;SDS011;20808;48.974;8.452;2023-01-15T00:57:25;1.00;;;0.70;;
34571;SDS011;20808;48.974;8.452;2023-01-15T00:57:43;0.90;;;0.60;;
34571;SDS011;20808;48.974;8.452;2023-01-15T00:58:00;0.90;;;0.70;;
34571;SDS011;20808;48.974;8.452;2023-01-15T00:58:16;1.10;;;0.70;;
34571;SDS011;20808;48.974;8.452;2023-01-15T00:58:33;1.10;;;0.68;;
34571;SDS011;20808;48.974;8.452;2023-01-15T00:58:48;1.10;;;0.70;;
34571;SDS011;20808;48.974;8.452;2023-01-15T00:59:04;1.08;;;0.70;;
34571;SDS011;20808;48.974;8.452;2023-01-15T00:59:20;1.30;;;0.77;;
34571;SDS011;20808;48.974;8.452;2023-01-15T00:59:36;1.30;;;0.80;;
34571;SDS011;20808;48.974;8.452;2023-01-15T00:59:52;1.45;;;0.75;;
34571;SDS011;20808;48.974;8.452;2023-01-15T01:00:09;1.50;;;0.80;;
34571;SDS011;20808;48.974;8.452;2023-01-15T01:00:26;1.73;;;0.70;;
34571;SDS011;20808;48.974;8.452;2023-01-15T01:00:42;2.20;;;0.80;;
34571;SDS011;20808;48.974;8.452;2023-01-15T01:00:58;2.05;;;0.73;;
34571;SDS011;20808;48.974;8.452;2023-01-15T01:01:14;2.28;;;0.80;;
34571;SDS011;20808;48.974;8.452;2023-01-15T01:01:30;1.80;;;0.77;;
34571;SDS011;20808;48.974;8.452;2023-01-15T01:01:47;1.60;;;0.80;;
34571;SDS011;20808;48.974;8.452;2023-01-15T01:02:03;1.23;;;0.70;;
34571;SDS011;20808;48.974;8.452;2023-01-15T01:02:19;1.00;;;0.70;;
34571;SDS011;20808;48.974;8.452;2023-01-15T01:02:35;1.02;;;0.70;;
34571;SDS011;20808;48.974;8.452;2023-01-15T01:02:51;1.20;;;0.70;;
34571;SDS011;20808;48.974;8.452;2023-01-15T01:03:06;1.10;;;0.70;;
34571;SDS011;20808;48.974;8.452;2023-01-15T01:03:23;1.17;;;0.70;;
34571;SDS011;20808;48.974;8.452;2023-01-15T01:03:39;1.50;;;0.70;;
34571;SDS011;20808;48.974;8.452;2023-01-15T01:03:55;1.48;;;0.70;;
34571;SDS011;20808;48.974;8.452;2023-01-15T01:04:11;1.40;;;0.70;;
34571;SDS011;20808;48.974;8.452;2023-01-15T01:04:27;1.30;;;0.70;;
34571;SDS011;20808;48.974;8.452;2023-01-15T01:04:43;0.80;;;0.70;;
34571;SDS011;20808;48.974;8.452;2023-01-15T01:04:59;1.08;;;0.70;;
34571;SDS011;20808;48.974;8.452;2023-01-15T01:05:14;1.10;;;0.70;;
34571;SDS011;20808;48.974;8.452;2023-01-15T01:05:31;1.40;;;0.80;;
34571;SDS011;20808;48.974;8.452;2023-01-15T01:05:47;1.88;;;0.80;;
34571;SDS011;20808;48.974;8.452;2023-01-15T01:06:04;1.80;;;0.80;;
34571;SDS011;20808;48.974;8.452;2023-01-15T01:06:20;1.80;;;0.80;;
34571;SDS011;20808;48.974;8.452;2023-01-15T01:06:36;1.50;;;0.80;;
34571;SDS011;20808;48.974;8.452;2023-01-15T01:06:52;1.00;;;0.80;;
34571;SDS011;20808;48.974;8.452;2023-01-15T01:07:08;1.00;;;0.80;;
34571;SDS011;20808;48.974;8.452;2023-01-15T01:07:24;1.00;;;0.70;;
34571;SDS011;20808;48.974;8.452;2023-01-15T01:07:40;1.00;;;0.70;;
34571;SDS011;20808;48.974;8.452;2023-01-15T01:07:56;1.23;;;0.70;;
34571;SDS011;20808;48.974;8.452;2023-01-15T01:08:13;1.50;;;0.70;;
34571;SDS011;20808;48.974;8.452;2023-01-15T01:08:30;1.40;;;0.70;;
34571;SDS011;20808;48.974;8.452;2023-01-15T01:08:46;1.50;;;0.70;;
34571;SDS011;20808;48.974;8.452;2023-01-15T01:09:02;1.20;;;0.70;;
34571;SDS011;20808;48.974;8.452;2023-01-15T01:09:18;1.10;;;0.70;;
34571;SDS011;20808;48.974;8.452;2023-01-15T01:09:34;1.17;;;0.70;;
34571;SDS011;20808;48.974;8.452;2023-01-15T01:09:51;1.20;;;0.70;;
34571;SDS011;20808;48.974;8.452;2023-01-15T01:10:07;1.10;;;0.80;;
34571;SDS011;20808;48.974;8.452;2023-01-15T01:10:23;1.10;;;0.80;;
34571;SDS011;20808;48.974;8.452;2023-01-15T01:10:39;0.93;;;0.80;;
34571;SDS011;20808;48.974;8.452;2023-01-15T01:11:02;1.10;;;0.80;;
34571;SDS011;20808;48.974;8.452;2023-01-15T01:11:21;1.20;;;0.70;;
34571;SDS011;20808;48.974;8.452;2023-01-15T01:11:40;1.77;;;0.80;;
34571;SDS011;20808;48.974;8.452;2023-01-15T01:11:57;1.70;;;0.70;;
34571;SDS011;20808;48.974;8.452;2023-01-15T01:12:12;1.67;;;0.70;;
34571;SDS011;20808;48.974;8.452;2023-01-15T01:12:29;1.50;;;0.70;;
34571;SDS011;20808;48.974;8.452;2023-01-15T01:12:54;0.80;;;0.60;;
34571;SDS011;20808;48.974;8.452;2023-01-15T01:13:11;0.80;;;0.60;;
34571;SDS011;20808;48.974;8.452;2023-01-15T01:13:27;0.90;;;0.65;;
34571;SDS011;20808;48.974;8.452;2023-01-15T01:13:43;0.90;;;0.70;;
34571;SDS011;20808;48.974;8.452;2023-01-15T01:14:01;1.10;;;0.70;;
34571;SDS011;20808;48.974;8.452;2023-01-15T01:14:16;1.05;;;0.70;;
34571;SDS011;20808;48.974;8.452;2023-01-15T01:14:32;1.00;;;0.70;;
34571;SDS011;20808;48.974;8.452;2023-01-15T01:14:48;1.02;;;0.70;;
34571;SDS011;20808;48.974;8.452;2023-01-15T01:15:04;1.10;;;0.70;;
34571;SDS011;20808;48.974;8.452;2023-01-15T01:15:23;1.10;;;0.80;;
34571;SDS011;20808;48.974;8.452;2023-01-15T01:15:39;1.20;;;0.82;;
34571;SDS011;20808;48.974;8.452;2023-01-15T01:15:55;1.20;;;0.90;;
34571;SDS011;20808;48.974;8.452;2023-01-15T01:16:21;1.00;;;0.90;;
34571;SDS011;20808;48.974;8.452;2023-01-15T01:16:39;0.93;;;0.80;;
34571;SDS011;20808;48.974;8.452;2023-01-15T01:16:56;0.90;;;0.80;;
34571;SDS011;20808;48.974;8.452;2023-01-15T01:17:12;1.10;;;0.80;;
34571;SDS011;20808;48.974;8.452;2023-01-15T01:17:28;1.10;;;0.80;;
34571;SDS011;20808;48.974;8.452;2023-01-15T01:17:44;1.10;;;0.70;;
34571;SDS011;20808;48.974;8.452;2023-01-15T01:18:00;1.00;;;0.70;;
34571;SDS011;20808;48.974;8.452;2023-01-15T01:18:15;0.95;;;0.70;;
34571;SDS011;20808;48.974;8.452;2023-01-15T01:18:31;1.20;;;0.70;;
34571;SDS011;20808;48.974;8.452;2023-01-15T01:18:48;1.20;;;0.70;;
34571;SDS011;20808;48.974;8.452;2023-01-15T01:19:05;1.40;;;0.70;;
34571;SDS011;20808;48.974;8.452;2023-01-15T01:19:23;1.35;;;0.70;;
34571;SDS011;20808;48.974;8.452;2023-01-15T01:19:40;1.25;;;0.75;;
34571;SDS011;20808;48.974;8.452;2023-01-15T01:19:56;1.40;;;0.70;;
34571;SDS011;20808;48.974;8.452;2023-01-15T01:20:13;1.20;;;0.70;;
34571;SDS011;20808;48.974;8.452;2023-01-15T01:20:30;1.00;;;0.70;;
34571;SDS011;20808;48.974;8.452;2023-01-15T01:20:47;1.50;;;0.80;;
34571;SDS011;20808;48.974;8.452;2023-01-15T01:21:03;1.50;;;0.80;;
34571;SDS011;20808;48.974;8.452;2023-01-15T01:21:19;1.52;;;0.80;;
34571;SDS011;20808;48.974;8.452;2023-01-15T01:21:37;1.15;;;0.80;;
34571;SDS011;20808;48.974;8.452;2023-01-15T01:21:53;1.10;;;0.70;;
34571;SDS011;20808;48.974;8.452;2023-01-15T01:22:09;1.60;;;0.75;;
34571;SDS011;20808;48.974;8.452;2023-01-15T01:22:25;1.90;;;0.80;;
34571;SDS011;20808;48.974;8.452;2023-01-15T01:22:41;1.80;;;0.80;;
34571;SDS011;20808;48.974;8.452;2023-01-15T01:22:59;1.80;;;0.80;;
34571;SDS011;20808;48.974;8.452;2023-01-15T01:23:15;0.90;;;0.70;;
34571;SDS011;20808;48.974;8.452;2023-01-15T01:23:30;0.90;;;0.70;;
34571;SDS011;20808;48.974;8.452;2023-01-15T01:23:46;1.15;;;0.70;;
34571;SDS011;20808;48.974;8.452;2023-01-15T01:24:02;1.40;;;0.80;;
34571;SDS011;20808;48.974;8.452;2023-01-15T01:24:19;1.30;;;0.80;;
34571;SDS011;20808;48.974;8.452;2023-01-15T01:24:38;1.30;;;0.80;;
34571;SDS011;20808;48.974;8.452;2023-01-15T01:24:53;1.08;;;0.77;;
34571;SDS011;20808;48.974;8.452;2023-01-15T01:25:09;1.30;;;0.80;;
34571;SDS011;20808;48.974;8.452;2023-01-15T01:25:25;1.52;;;0.80;;
34571;SDS011;20808;48.974;8.452;2023-01-15T01:25:41;1.60;;;0.80;;
34571;SDS011;20808;48.974;8.452;2023-01-15T01:25:57;1.35;;;0.80;;
34571;SDS011;20808;48.974;8.452;2023-01-15T01:26:13;1.20;;;0.80;;
34571;SDS011;20808;48.974;8.452;2023-01-15T01:26:29;1.30;;;0.80;;
34571;SDS011;20808;48.974;8.452;2023-01-15T01:26:45;1.40;;;0.80;;
34571;SDS011;20808;48.974;8.452;2023-01-15T01:27:02;1.50;;;0.70;;
34571;SDS011;20808;48.974;8.452;2023-01-15T01:27:18;1.70;;;0.80;;
34571;SDS011;20808;48.974;8.452;2023-01-15T01:27:35;1.40;;;0.80;;
34571;SDS011;20808;48.974;8.452;2023-01-15T01:27:51;1.30;;;0.70;;
34571;SDS011;20808;48.974;8.452;2023-01-15T01:28:06;0.95;;;0.70;;
34571;SDS011;20808;48.974;8.452;2023-01-15T01:28:24;0.90;;;0.60;;
34571;SDS011;20808;48.974;8.452;2023-01-15T01:28:39;1.10;;;0.65;;
34571;SDS011;20808;48.974;8.452;2023-01-15T01:28:56;1.10;;;0.70;;
34571;SDS011;20808;48.974;8.452;2023-01-15T01:29:13;1.10;;;0.70;;
34571;SDS011;20808;48.974;8.452;2023-01-15T01:29:31;1.27;;;0.70;;
34571;SDS011;20808;48.974;8.452;2023-01-15T01:29:46;1.40;;;0.70;;
34571;SDS011;20808;48.974;8.452;2023-01-15T01:30:02;1.40;;;0.80;;
34571;SDS011;20808;48.974;8.452;2023-01-15T01:30:19;1.40;;;0.77;;
34571;SDS011;20808;48.974;8.452;2023-01-15T01:30:36;1.00;;;0.80;;
34571;SDS011;20808;48.974;8.452;2023-01-15T01:30:53;0.90;;;0.73;;
34571;SDS011;20808;48.974;8.452;2023-01-15T01:31:09;0.90;;;0.70;;
34571;SDS011;20808;48.974;8.452;2023-01-15T01:31:25;1.20;;;0.70;;
34571;SDS011;20808;48.974;8.452;2023-01-15T01:31:41;1.10;;;0.70;;
34571;SDS011;20808;48.974;8.452;2023-01-15T01:31:57;1.10;;;0.70;;
34571;SDS011;20808;48.974;8.452;2023-01-15T01:32:14;1.50;;;0.70;;
34571;SDS011;20808;48.974;8.452;2023-01-15T01:32:29;1.40;;;0.70;;
34571;SDS011;20808;48.974;8.452;2023-01-15T01:32:45;1.30;;;0.63;;
34571;SDS011;20808;48.974;8.452;2023-01-15T01:33:01;1.30;;;0.60;;
34571;SDS011;20808;48.974;8.452;2023-01-15T01:33:17;1.10;;;0.80;;
34571;SDS011;20808;48.974;8.452;2023-01-15T01:33:32;1.27;;;0.80;;
34571;SDS011;20808;48.974;8.452;2023-01-15T01:33:49;1.30;;;0.80;;
34571;SDS011;20808;48.974;8.452;2023-01-15T01:34:07;1.27;;;0.80;;
34571;SDS011;20808;48.974;8.452;2023-01-15T01:34:24;0.98;;;0.70;;
34571;SDS011;20808;48.974;8.452;2023-01-15T01:34:40;0.80;;;0.70;;
34571;SDS011;20808;48.974;8.452;2023-01-15T01:34:56;0.90;;;0.80;;
34571;SDS011;20808;48.974;8.452;2023-01-15T01:35:12;0.90;;;0.70;;
34571;SDS011;20808;48.974;8.452;2023-01-15T01:35:28;0.90;;;0.80;;
34571;SDS011;20808;48.974;8.452;2023-01-15T01:35:46;0.90;;;0.70;;
34571;SDS011;20808;48.974;8.452;2023-01-15T01:36:03;1.30;;;0.90;;
34571;SDS011;20808;48.974;8.452;2023-01-15T01:36:19;1.25;;;0.85;;
34571;SDS011;20808;48.974;8.452;2023-01-15T01:36:41;1.30;;;0.90;;
34571;SDS011;20808;48.974;8.452;2023-01-15T01:36:58;1.20;;;0.77;;
34571;SDS011;20808;48.974;8.452;2023-01-15T01:37:13;1.30;;;0.70;;
34571;SDS011;20808;48.974;8.452;2023-01-15T01:37:30;1.35;;;0.70;;
34571;SDS011;20808;48.974;8.452;2023-01-15T01:37:48;1.50;;;0.80;;
34571;SDS011;20808;48.974;8.452;2023-01-15T01:38:04;1.60;;;0.80;;
34571;SDS011;20808;48.974;8.452;2023-01-15T01:38:19;1.20;;;0.90;;
34571;SDS011;20808;48.974;8.452;2023-01-15T01:38:35;1.13;;;0.82;;
34571;SDS011;20808;48.974;8.452;2023-01-15T01:38:52;2.60;;;0.80;;
34571;SDS011;20808;48.974;8.452;2023-01-15T01:39:09;2.70;;;0.90;;
34571;SDS011;20808;48.974;8.452;2023-01-15T01:39:27;2.70;;;0.80;;
34571;SDS011;20808;48.974;8.452;2023-01-15T01:39:44;2.65;;;0.80;;
34571;SDS011;20808;48.974;8.452;2023-01-15T01:40:00;0.80;;;0.70;;
34571;SDS011;20808;48.974;8.452;2023-01-15T01:40:16;0.90;;;0.70;;
34571;SDS011;20808;48.974;8.452;2023-01-15T01:40:32;0.90;;;0.70;;
34571;SDS011;20808;48.974;8.452;2023-01-15T01:40:49;0.90;;;0.70;;
34571;SDS011;20808;48.974;8.452;2023-01-15T01:41:05;1.00;;;0.80;;
34571;SDS011;20808;48.974;8.452;2023-01-15T01:41:21;1.00;;;0.80;;
34571;SDS011;20808;48.974;8.452;2023-01-15T01:41:37;1.00;;;0.80;;